Time;durP1;ratioP1;P1;durP2;ratioP2;P2;SDS_P1;SDS_P2;PMS_P1;PMS_P2;Temp;Humidity;BMP_temperature;BMP_pressure;BME280_temperature;BME280_humidity;BME280_pressure;Samples;Min_cycle;Max_cycle;Signal;HPM_P1;HPM_P2
2024/02/05 00:01:25;;;;;;;6.35;1.98;;;;;;;17.58;54.20;101936.41;4964809;28;20469;-63
2024/02/05 00:03:51;;;;;;;12.40;3.35;;;;;;;17.57;54.20;101942.81;4973022;28;20070;-63
2024/02/05 00:06:16;;;;;;;5.68;1.88;;;;;;;17.57;54.21;101948.25;4973175;28;20491;-63
2024/02/05 00:08:42;;;;;;;8.52;2.03;;;;;;;17.59;53.86;101950.81;4989185;28;20039;-63
2024/02/05 00:11:07;;;;;;;12.13;2.55;;;;;;;17.60;54.33;101947.94;4956985;28;20089;-63
2024/02/05 00:13:33;;;;;;;11.38;2.05;;;;;;;17.61;53.68;101949.69;4989228;28;20043;-63
2024/02/05 00:15:58;;;;;;;9.15;2.65;;;;;;;17.60;54.08;101945.25;4972857;28;20027;-63
2024/02/05 00:18:27;;;;;;;11.82;2.95;;;;;;;17.62;54.11;101948.66;4989212;28;20026;-63
2024/02/05 00:20:53;;;;;;;8.38;2.20;;;;;;;17.63;53.96;101944.09;4973689;28;20035;-63
2024/02/05 00:23:18;;;;;;;11.48;3.25;;;;;;;17.65;54.14;101947.50;4972822;28;20081;-63
2024/02/05 00:25:43;;;;;;;5.88;2.10;;;;;;;17.63;54.23;101953.09;4988772;28;20041;-63
2024/02/05 00:28:10;;;;;;;8.40;2.60;;;;;;;17.68;53.62;101950.78;4989035;28;20037;-63
2024/02/05 00:30:35;;;;;;;10.63;2.25;;;;;;;17.69;54.02;101947.06;4972740;28;20475;-63
2024/02/05 00:33:00;;;;;;;9.23;2.05;;;;;;;17.70;53.47;101965.03;4991130;28;20022;-63
2024/02/05 00:35:26;;;;;;;10.75;2.10;;;;;;;17.69;54.34;101955.22;4960457;28;20034;-63
2024/02/05 00:37:51;;;;;;;10.68;2.63;;;;;;;17.69;53.49;101947.06;4977943;28;20026;-63
2024/02/05 00:40:17;;;;;;;7.03;2.25;;;;;;;17.67;53.21;101972.63;4977677;28;20030;-63
2024/02/05 00:42:43;;;;;;;11.20;3.40;;;;;;;17.65;53.91;101967.31;4976975;28;20442;-63
2024/02/05 00:45:09;;;;;;;13.38;2.60;;;;;;;17.68;53.99;101958.91;4992844;28;20023;-63
2024/02/05 00:47:34;;;;;;;6.68;2.10;;;;;;;17.71;53.76;101955.03;4992764;28;20019;-63
2024/02/05 00:50:00;;;;;;;10.98;2.25;;;;;;;17.73;53.55;101963.88;4976493;28;20081;-63
2024/02/05 00:52:28;;;;;;;11.00;2.22;;;;;;;17.72;53.69;101963.03;4977630;28;20019;-63
2024/02/05 00:54:54;;;;;;;11.13;2.75;;;;;;;17.71;54.04;101961.31;4977729;28;20030;-63
2024/02/05 00:57:21;;;;;;;16.65;2.38;;;;;;;17.69;53.26;101963.34;4978850;28;20022;-63
2024/02/05 00:59:46;;;;;;;19.80;3.17;;;;;;;17.71;53.36;101965.88;4980305;28;20037;-63
2024/02/05 01:02:12;;;;;;;17.75;2.47;;;;;;;17.70;53.53;101965.03;4976295;28;20022;-63
2024/02/05 01:04:37;;;;;;;11.77;2.67;;;;;;;17.70;53.50;101959.59;4992397;28;20447;-63
2024/02/05 01:07:03;;;;;;;11.80;2.50;;;;;;;17.67;53.68;101959.91;4960126;28;20045;-62
2024/02/05 01:09:29;;;;;;;8.30;2.75;;;;;;;17.71;54.14;101960.47;4976329;28;20390;-62
2024/02/05 01:11:54;;;;;;;9.73;2.90;;;;;;;17.71;53.46;101961.31;4976079;28;20072;-63
2024/02/05 01:14:20;;;;;;;9.65;3.10;;;;;;;17.70;53.35;101970.44;4986031;28;20034;-62
2024/02/05 01:16:46;;;;;;;19.75;2.75;;;;;;;17.70;53.79;101962.31;4996872;28;20375;-63
2024/02/05 01:19:12;;;;;;;18.33;2.47;;;;;;;17.70;53.87;101965.03;4995726;28;20031;-62
2024/02/05 01:21:37;;;;;;;14.05;2.63;;;;;;;17.70;53.26;101965.03;4982513;28;20030;-63
2024/02/05 01:24:03;;;;;;;12.65;3.03;;;;;;;17.70;53.71;101961.50;4977106;28;20031;-62
2024/02/05 01:26:28;;;;;;;6.43;2.28;;;;;;;17.71;53.46;101950.47;4977356;28;20030;-62
2024/02/05 01:28:53;;;;;;;14.63;3.42;;;;;;;17.71;53.43;101955.91;4977029;28;20490;-63
2024/02/05 01:31:18;;;;;;;11.05;2.50;;;;;;;17.73;52.90;101950.31;4975783;28;20498;-62
2024/02/05 01:33:44;;;;;;;10.90;2.17;;;;;;;17.74;53.41;101952.91;4976995;28;20027;-62
2024/02/05 01:36:10;;;;;;;9.57;2.30;;;;;;;17.74;52.95;101950.19;4975762;28;20039;-63
2024/02/05 01:38:35;;;;;;;11.55;2.08;;;;;;;17.74;53.46;101950.19;4975778;28;20048;-62
2024/02/05 01:41:00;;;;;;;11.05;2.17;;;;;;;17.73;52.57;101953.91;4975903;28;20043;-62
2024/02/05 01:43:26;;;;;;;6.18;1.88;;;;;;;17.71;52.76;101946.91;4975118;28;20035;-62
2024/02/05 01:45:51;;;;;;;11.02;2.53;;;;;;;17.69;53.12;101947.06;4991625;28;20022;-62
2024/02/05 01:48:21;;;;;;;22.02;2.95;;;;;;;17.68;53.32;101956.19;4975914;28;20038;-62
2024/02/05 01:50:47;;;;;;;11.73;3.55;;;;;;;17.67;53.18;101948.22;4976645;28;20491;-65
2024/02/05 01:53:12;;;;;;;12.93;3.28;;;;;;;17.68;52.86;101953.50;4977228;28;20038;-66
2024/02/05 01:55:38;;;;;;;11.25;2.58;;;;;;;17.69;53.11;101952.50;4979274;28;20042;-66
2024/02/05 01:58:04;;;;;;;11.10;2.53;;;;;;;17.70;52.86;101954.19;4981036;28;20031;-65
2024/02/05 02:00:32;;;;;;;13.27;2.63;;;;;;;17.72;53.03;101952.19;4979293;28;20042;-65
2024/02/05 02:02:57;;;;;;;20.60;3.10;;;;;;;17.77;53.25;101944.47;4977505;28;20027;-66
2024/02/05 02:05:23;;;;;;;8.10;2.47;;;;;;;17.77;52.86;101947.19;4975949;28;20050;-66
2024/02/05 02:07:48;;;;;;;12.15;2.42;;;;;;;17.73;53.42;101945.75;4975804;28;20030;-66
2024/02/05 02:10:14;;;;;;;12.77;2.50;;;;;;;17.76;53.09;101941.91;4975690;28;20372;-66
2024/02/05 02:12:39;;;;;;;12.18;3.60;;;;;;;17.75;53.04;101946.50;4959611;28;20027;-66
2024/02/05 02:15:05;;;;;;;14.35;2.65;;;;;;;17.74;53.02;101938.50;4975841;28;20031;-65
2024/02/05 02:17:32;;;;;;;12.15;2.63;;;;;;;17.72;52.95;101935.94;4975535;28;20367;-66
2024/02/05 02:19:57;;;;;;;13.63;2.70;;;;;;;17.75;52.72;101938.34;4975709;28;20093;-65
2024/02/05 02:22:35;;;;;;;16.38;2.30;;;;;;;17.75;52.91;101924.81;4975605;28;20384;-66
2024/02/05 02:25:01;;;;;;;11.57;2.58;;;;;;;17.71;52.52;101931.50;4976681;28;20027;-66
2024/02/05 02:27:26;;;;;;;13.90;3.47;;;;;;;17.72;52.95;101924.25;4959443;28;20035;-66
2024/02/05 02:29:51;;;;;;;18.75;4.05;;;;;;;17.70;52.64;101937.94;4959207;28;20049;-66
2024/02/05 02:32:26;;;;;;;12.38;2.58;;;;;;;17.70;53.08;101921.66;4975365;28;20031;-66
2024/02/05 02:34:54;;;;;;;11.20;2.47;;;;;;;17.68;52.94;101922.81;4976701;28;20038;-66
2024/02/05 02:37:22;;;;;;;14.32;2.28;;;;;;;17.66;52.78;101922.13;4975814;28;20034;-65
2024/02/05 02:39:56;;;;;;;19.15;2.90;;;;;;;17.64;52.62;101911.44;4974377;28;20045;-66
2024/02/05 02:42:24;;;;;;;15.52;3.95;;;;;;;17.66;52.44;101914.84;4975670;28;20035;-66
2024/02/05 02:44:50;;;;;;;13.77;2.25;;;;;;;17.65;52.74;101905.00;4975302;28;20035;-66
2024/02/05 02:47:15;;;;;;;17.58;3.90;;;;;;;17.66;52.74;101908.56;4975401;28;20077;-66
2024/02/05 02:49:40;;;;;;;17.83;3.13;;;;;;;17.65;52.62;101896.88;4975111;28;20070;-66
2024/02/05 02:52:06;;;;;;;16.52;3.22;;;;;;;17.68;52.77;101902.00;4975176;28;20043;-65
2024/02/05 02:54:31;;;;;;;14.57;2.83;;;;;;;17.65;52.61;101901.44;4974729;28;20039;-65
2024/02/05 02:56:56;;;;;;;17.08;2.88;;;;;;;17.62;52.32;101902.59;4974563;28;20034;-66
2024/02/05 02:59:22;;;;;;;15.10;2.95;;;;;;;17.63;52.22;101898.88;4974978;28;20039;-65
2024/02/05 03:01:47;;;;;;;14.48;2.55;;;;;;;17.64;52.01;101900.59;4975083;28;20062;-62
2024/02/05 03:04:13;;;;;;;11.30;3.38;;;;;;;17.63;52.70;101904.31;4957603;28;20125;-62
2024/02/05 03:06:38;;;;;;;14.07;2.28;;;;;;;17.61;52.73;101905.47;4975318;28;20058;-63
2024/02/05 03:09:05;;;;;;;21.60;4.07;;;;;;;17.54;52.61;101891.63;4974046;28;20054;-63
2024/02/05 03:11:31;;;;;;;10.75;2.40;;;;;;;17.59;52.84;101902.88;4975022;28;20031;-63
2024/02/05 03:13:56;;;;;;;11.02;2.70;;;;;;;17.58;52.50;101912.03;4973931;28;20042;-62
2024/02/05 03:16:22;;;;;;;11.95;3.20;;;;;;;17.59;52.69;101902.06;4974934;28;20027;-63
2024/02/05 03:18:48;;;;;;;20.90;3.90;;;;;;;17.60;52.94;101904.59;4975083;28;20042;-62
2024/02/05 03:21:13;;;;;;;15.68;4.05;;;;;;;17.61;52.09;101906.31;4989679;28;20042;-63
2024/02/05 03:23:38;;;;;;;23.55;3.47;;;;;;;17.59;52.21;101908.31;4973713;28;20166;-62
2024/02/05 03:26:04;;;;;;;17.27;2.63;;;;;;;17.59;52.27;101910.19;4990020;28;20035;-62
2024/02/05 03:28:29;;;;;;;17.33;3.38;;;;;;;17.60;52.24;101906.44;4973788;28;20045;-62
2024/02/05 03:30:54;;;;;;;17.35;2.83;;;;;;;17.59;52.63;101916.44;4958362;28;20078;-62
2024/02/05 03:33:20;;;;;;;16.02;3.33;;;;;;;17.61;52.37;101919.00;4973894;28;20046;-63
2024/02/05 03:35:45;;;;;;;16.35;3.13;;;;;;;17.58;52.04;101912.03;4974226;28;20038;-62
2024/02/05 03:38:11;;;;;;;21.85;3.80;;;;;;;17.56;52.48;101919.44;4974826;28;20506;-63
2024/02/05 03:40:36;;;;;;;20.70;2.35;;;;;;;17.53;52.25;101908.03;4974540;28;20035;-63
2024/02/05 03:43:03;;;;;;;15.38;3.85;;;;;;;17.54;52.59;101913.31;4974621;28;20031;-63
2024/02/05 03:45:30;;;;;;;7.18;2.38;;;;;;;17.55;52.13;101912.31;4973559;28;20513;-62
2024/02/05 03:47:55;;;;;;;14.80;3.05;;;;;;;17.52;52.26;101918.00;4973536;28;20027;-63
2024/02/05 03:50:20;;;;;;;16.92;3.05;;;;;;;17.54;51.67;101921.44;4957108;28;20499;-63
2024/02/05 03:52:46;;;;;;;18.13;2.63;;;;;;;17.53;52.62;101919.72;4973268;28;20038;-63
2024/02/05 03:55:12;;;;;;;15.80;3.83;;;;;;;17.54;52.39;101921.44;4974272;28;20406;-62
2024/02/05 03:57:45;;;;;;;28.75;3.13;;;;;;;17.53;52.09;101914.31;4973158;28;20046;-63
2024/02/05 04:00:11;;;;;;;14.82;2.35;;;;;;;17.52;52.10;101918.00;4973086;28;20126;-63
2024/02/05 04:02:38;;;;;;;14.63;2.75;;;;;;;17.50;52.14;101914.59;4973309;28;20035;-63
2024/02/05 04:05:05;;;;;;;16.63;2.92;;;;;;;17.51;52.40;101920.84;4973040;28;20046;-63
2024/02/05 04:07:30;;;;;;;16.35;3.00;;;;;;;17.53;51.90;101918.88;4973586;28;20050;-63
2024/02/05 04:09:56;;;;;;;11.50;3.20;;;;;;;17.53;51.68;101914.31;4974391;28;20035;-63
2024/02/05 04:12:21;;;;;;;12.05;2.80;;;;;;;17.54;52.31;101916.03;4973167;28;20035;-63
2024/02/05 04:14:47;;;;;;;11.85;2.65;;;;;;;17.51;52.00;101915.44;4972759;28;20030;-63
2024/02/05 04:17:12;;;;;;;10.52;2.92;;;;;;;17.48;52.28;101911.16;4974080;28;20049;-62
2024/02/05 04:19:43;;;;;;;12.23;2.58;;;;;;;17.51;52.57;101913.56;4972861;28;20410;-63
2024/02/05 04:22:09;;;;;;;12.27;2.85;;;;;;;17.53;52.38;101913.44;4973233;28;20046;-63
2024/02/05 04:24:34;;;;;;;13.05;3.28;;;;;;;17.53;52.01;101914.31;4989031;28;20030;-63
2024/02/05 04:27:00;;;;;;;19.45;3.10;;;;;;;17.52;51.85;101904.44;4974118;28;20039;-63
2024/02/05 04:29:25;;;;;;;16.35;3.80;;;;;;;17.53;51.31;101911.59;4973974;28;20502;-62
2024/02/05 04:31:50;;;;;;;22.58;4.32;;;;;;;17.55;51.80;101911.47;4973929;28;20038;-62
2024/02/05 04:34:16;;;;;;;12.98;2.28;;;;;;;17.51;52.05;101905.44;4974105;28;20027;-63
2024/02/05 04:36:41;;;;;;;13.40;2.83;;;;;;;17.51;52.42;101916.28;4973840;28;20506;-63
2024/02/05 04:39:10;;;;;;;17.00;2.63;;;;;;;17.49;51.82;101918.28;4972645;28;20305;-62
2024/02/05 04:41:36;;;;;;;21.92;3.78;;;;;;;17.50;52.52;101911.88;4974056;28;20027;-62
2024/02/05 04:44:01;;;;;;;12.07;2.75;;;;;;;17.49;52.21;101923.72;4972828;28;20038;-63
2024/02/05 04:46:27;;;;;;;14.48;3.10;;;;;;;17.49;51.46;101923.72;4972840;28;20035;-63
2024/02/05 04:48:52;;;;;;;23.52;3.28;;;;;;;17.46;52.20;101921.28;4973929;28;20115;-63
2024/02/05 04:51:18;;;;;;;9.35;3.33;;;;;;;17.50;51.90;101916.44;4972670;28;20162;-62
2024/02/05 04:53:43;;;;;;;14.43;2.75;;;;;;;17.49;51.66;101921.00;4973849;28;20101;-63
2024/02/05 04:56:09;;;;;;;13.48;4.00;;;;;;;17.49;52.17;101912.88;4972747;28;20101;-63
2024/02/05 04:58:34;;;;;;;13.68;3.15;;;;;;;17.49;51.56;101912.88;4988732;28;20035;-63
2024/02/05 05:01:00;;;;;;;23.60;3.08;;;;;;;17.43;52.33;101908.03;4972555;28;20151;-63
2024/02/05 05:03:25;;;;;;;16.48;3.13;;;;;;;17.45;52.26;101911.44;4972337;28;20038;-62
2024/02/05 05:05:50;;;;;;;14.73;2.58;;;;;;;17.44;52.21;101907.06;4972429;28;20034;-63
2024/02/05 05:08:16;;;;;;;16.92;2.95;;;;;;;17.46;51.64;101911.31;4972673;28;20039;-63
2024/02/05 05:10:41;;;;;;;10.65;2.50;;;;;;;17.44;51.86;101907.06;4972296;28;20030;-62
2024/02/05 05:13:07;;;;;;;14.13;2.90;;;;;;;17.47;51.91;101898.63;4972963;28;20035;-62
2024/02/05 05:15:32;;;;;;;14.27;2.67;;;;;;;17.44;52.03;101893.50;4973017;28;20509;-62
2024/02/05 05:17:58;;;;;;;17.23;3.03;;;;;;;17.44;51.68;101904.34;4974790;28;20039;-63
2024/02/05 05:20:23;;;;;;;14.40;2.97;;;;;;;17.41;52.10;101891.09;4977177;28;20027;-63
2024/02/05 05:22:48;;;;;;;12.80;3.03;;;;;;;17.43;51.50;101894.50;4977865;28;20410;-62
2024/02/05 05:25:14;;;;;;;11.18;3.42;;;;;;;17.37;51.10;101885.09;4994866;28;20395;-63
2024/02/05 05:27:39;;;;;;;20.75;2.65;;;;;;;17.35;51.66;101880.84;4980161;28;20399;-63
2024/02/05 05:30:06;;;;;;;14.73;3.85;;;;;;;17.32;51.69;101889.25;4979343;28;20035;-68
2024/02/05 05:32:31;;;;;;;18.25;2.45;;;;;;;17.32;52.03;101894.69;4979813;28;20035;-62
2024/02/05 05:34:57;;;;;;;21.23;3.58;;;;;;;17.31;50.90;101898.38;4978370;28;20035;-63
2024/02/05 05:37:23;;;;;;;17.77;3.00;;;;;;;17.31;51.34;101892.94;4977030;28;20067;-62
2024/02/05 05:39:49;;;;;;;16.42;2.58;;;;;;;17.33;51.30;101893.69;4975414;28;20061;-63
2024/02/05 05:42:15;;;;;;;16.35;3.10;;;;;;;17.30;51.34;101883.13;4977001;28;20039;-63
2024/02/05 05:44:40;;;;;;;15.45;2.72;;;;;;;17.28;51.85;101885.97;4976968;28;20027;-63
2024/02/05 05:47:07;;;;;;;7.93;2.25;;;;;;;17.26;51.91;101890.69;4976441;28;20031;-65
2024/02/05 05:49:32;;;;;;;17.88;3.40;;;;;;;17.26;52.03;101873.59;4959332;28;20026;-63
2024/02/05 05:51:57;;;;;;;15.52;2.65;;;;;;;17.27;51.49;101872.59;4976131;28;20023;-63
2024/02/05 05:54:23;;;;;;;8.40;2.65;;;;;;;17.23;51.51;101868.47;4975563;28;20026;-63
2024/02/05 05:56:48;;;;;;;11.63;2.40;;;;;;;17.25;51.16;101877.31;4959088;28;20426;-63
2024/02/05 05:59:14;;;;;;;19.20;2.85;;;;;;;17.24;51.33;101881.00;4976657;28;20105;-62
2024/02/05 06:01:40;;;;;;;16.60;2.78;;;;;;;17.24;51.46;101881.88;4976447;28;20467;-62
2024/02/05 06:04:05;;;;;;;19.27;2.70;;;;;;;17.22;51.15;101872.19;4975246;28;20047;-62
2024/02/05 06:06:31;;;;;;;19.10;2.88;;;;;;;17.20;51.15;101868.75;4975309;28;20027;-62
2024/02/05 06:08:58;;;;;;;15.32;3.10;;;;;;;17.18;51.35;101868.91;4977026;28;20387;-62
2024/02/05 06:11:25;;;;;;;18.45;3.88;;;;;;;17.16;51.17;101872.78;4976508;28;20014;-63
2024/02/05 06:13:51;;;;;;;12.77;2.63;;;;;;;17.16;51.72;101867.34;4976614;28;20019;-62
2024/02/05 06:16:17;;;;;;;20.15;3.42;;;;;;;17.16;51.59;101861.94;4975205;28;20042;-63
2024/02/05 06:18:42;;;;;;;14.18;3.15;;;;;;;17.13;51.86;101856.81;4976378;28;20491;-63
2024/02/05 06:21:08;;;;;;;11.40;2.00;;;;;;;17.12;51.06;101865.94;4975181;28;20050;-63
2024/02/05 06:23:34;;;;;;;10.57;2.63;;;;;;;17.13;51.25;101851.41;4975424;28;20030;-62
2024/02/05 06:25:59;;;;;;;17.30;3.40;;;;;;;17.12;51.57;101855.09;4958815;28;20027;-63
2024/02/05 06:28:25;;;;;;;8.95;2.65;;;;;;;17.09;51.59;101855.38;4974886;28;20443;-63
2024/02/05 06:30:51;;;;;;;14.00;2.85;;;;;;;17.11;50.88;101861.53;4975451;28;20501;-62
2024/02/05 06:33:17;;;;;;;21.58;3.88;;;;;;;17.07;51.02;101852.84;4958931;28;20502;-63
2024/02/05 06:35:43;;;;;;;18.13;3.33;;;;;;;17.05;50.82;101862.97;4974863;28;20035;-62
2024/02/05 06:38:08;;;;;;;12.35;2.55;;;;;;;17.05;50.80;101862.09;4974941;28;20042;-63
2024/02/05 06:40:33;;;;;;;17.25;3.53;;;;;;;17.03;51.32;101847.88;4958904;28;20514;-63
2024/02/05 06:42:59;;;;;;;19.45;3.00;;;;;;;17.01;51.40;101864.25;4973674;28;20029;-62
2024/02/05 06:45:24;;;;;;;10.02;2.72;;;;;;;17.00;51.68;101859.00;4974644;28;20023;-62
2024/02/05 06:47:51;;;;;;;12.98;3.22;;;;;;;17.02;51.48;101865.09;4974527;28;20049;-62
2024/02/05 06:50:16;;;;;;;15.77;2.55;;;;;;;16.98;51.06;101863.66;4974289;28;20035;-62
2024/02/05 06:52:43;;;;;;;8.88;2.92;;;;;;;16.98;51.16;101864.53;4974723;28;20035;-62
2024/02/05 06:55:08;;;;;;;11.05;3.28;;;;;;;16.97;51.70;101864.69;4958505;28;20035;-62
2024/02/05 06:57:36;;;;;;;18.27;3.15;;;;;;;16.95;50.83;101866.66;4974586;28;20034;-63
2024/02/05 07:00:05;;;;;;;13.82;3.15;;;;;;;16.96;51.23;101866.53;4974089;28;20035;-62
2024/02/05 07:02:31;;;;;;;24.02;3.13;;;;;;;16.97;51.76;101876.38;4974199;28;20088;-62
2024/02/05 07:04:56;;;;;;;20.27;4.38;;;;;;;16.97;51.38;101878.22;4973053;28;20035;-63
2024/02/05 07:07:22;;;;;;;16.73;2.15;;;;;;;16.95;50.73;101881.06;4959197;28;20117;-61
2024/02/05 07:09:48;;;;;;;20.48;2.42;;;;;;;16.94;50.02;101894.75;4955887;28;20091;-62
2024/02/05 07:12:13;;;;;;;11.65;3.08;;;;;;;16.93;50.73;101890.31;4965348;28;20034;-62
2024/02/05 07:14:39;;;;;;;18.10;2.55;;;;;;;16.93;50.53;101887.63;4960847;28;20035;-63
2024/02/05 07:17:04;;;;;;;19.42;2.67;;;;;;;16.93;51.27;101890.31;4955870;28;20035;-62
2024/02/05 07:19:30;;;;;;;10.52;3.20;;;;;;;16.93;51.05;101893.03;4955735;28;20027;-62
2024/02/05 07:21:55;;;;;;;16.20;3.50;;;;;;;16.92;50.52;101886.75;4959041;28;20047;-62
2024/02/05 07:24:20;;;;;;;22.88;3.00;;;;;;;16.92;50.60;101885.94;4952956;28;20106;-62
2024/02/05 07:26:46;;;;;;;14.15;3.15;;;;;;;16.89;51.26;101889.75;4956276;28;20513;-62
2024/02/05 07:29:11;;;;;;;12.32;2.95;;;;;;;16.90;51.59;101896.88;4970885;28;20480;-62
2024/02/05 07:31:36;;;;;;;20.65;3.80;;;;;;;16.89;50.66;101896.03;4971019;28;20459;-62
2024/02/05 07:34:02;;;;;;;14.73;3.15;;;;;;;16.90;51.21;101902.28;4955699;28;20046;-62
2024/02/05 07:36:27;;;;;;;13.23;2.70;;;;;;;16.92;51.14;101907.59;4970627;28;20035;-62
2024/02/05 07:38:53;;;;;;;10.50;3.17;;;;;;;16.94;50.93;101911.84;4954366;29;20035;-62
2024/02/05 07:41:18;;;;;;;13.30;2.30;;;;;;;16.91;51.56;101912.13;4953766;28;20506;-62
2024/02/05 07:43:44;;;;;;;14.27;3.25;;;;;;;16.93;50.43;101901.16;4953743;29;20499;-62
2024/02/05 07:46:10;;;;;;;11.43;3.58;;;;;;;16.93;50.56;101909.28;4967184;28;20490;-62
2024/02/05 07:48:36;;;;;;;12.63;3.03;;;;;;;16.95;50.89;101904.56;4973359;28;20113;-62
2024/02/05 07:51:03;;;;;;;19.70;3.20;;;;;;;16.95;50.48;101918.09;4974584;28;20114;-62
2024/02/05 07:53:29;;;;;;;15.93;3.97;;;;;;;16.93;50.91;101909.28;4989696;28;20121;-62
2024/02/05 07:55:54;;;;;;;11.43;3.13;;;;;;;16.94;51.03;101916.41;4975182;28;20023;-63
2024/02/05 07:58:21;;;;;;;12.52;3.20;;;;;;;16.93;50.49;101920.97;4976372;28;20034;-62
2024/02/05 08:00:47;;;;;;;15.05;3.53;;;;;;;16.93;51.04;101926.38;4957086;28;20053;-62
2024/02/05 08:03:13;;;;;;;14.07;3.10;;;;;;;16.96;51.41;101928.78;4972931;28;20499;-62
2024/02/05 08:05:39;;;;;;;19.17;3.53;;;;;;;17.01;50.09;101939.19;4973367;28;20050;-62
2024/02/05 08:08:05;;;;;;;13.30;2.63;;;;;;;17.02;51.03;101930.06;4974317;28;20499;-61
2024/02/05 08:10:31;;;;;;;14.50;3.83;;;;;;;17.04;50.26;101933.47;4973004;28;20046;-62
2024/02/05 08:12:56;;;;;;;19.60;3.47;;;;;;;17.10;50.41;101922.09;4960866;28;20029;-61
2024/02/05 08:15:21;;;;;;;16.00;3.78;;;;;;;17.13;50.67;101933.50;4973088;28;20490;-61
2024/02/05 08:17:47;;;;;;;14.88;3.25;;;;;;;17.10;50.23;101906.69;4977464;28;20116;-61
2024/02/05 08:20:13;;;;;;;15.30;2.65;;;;;;;17.10;50.85;101924.78;5002039;28;20045;-62
2024/02/05 08:22:39;;;;;;;13.88;3.55;;;;;;;17.12;50.76;101914.66;4992553;28;20454;-62
2024/02/05 08:25:06;;;;;;;14.00;3.72;;;;;;;17.16;49.89;101921.50;4991412;28;20035;-62
2024/02/05 08:27:32;;;;;;;15.00;3.45;;;;;;;17.17;50.18;101917.81;4993557;28;20042;-62
2024/02/05 08:29:57;;;;;;;17.25;3.30;;;;;;;17.17;50.00;101915.94;4976307;28;20452;-62
2024/02/05 08:32:23;;;;;;;11.80;2.72;;;;;;;17.20;49.95;101922.91;4992173;28;20112;-62
2024/02/05 08:34:48;;;;;;;18.70;3.20;;;;;;;17.20;50.42;101912.06;4992324;28;20034;-62
2024/02/05 08:37:13;;;;;;;12.35;2.83;;;;;;;17.22;50.58;101915.53;4993554;28;20192;-62
2024/02/05 08:39:39;;;;;;;10.90;2.40;;;;;;;17.26;50.28;101911.50;4992037;28;20519;-62
2024/02/05 08:42:05;;;;;;;15.02;2.42;;;;;;;17.31;49.99;101898.38;4973462;28;20046;-62
2024/02/05 08:44:30;;;;;;;15.23;2.75;;;;;;;17.32;49.74;101910.91;4972580;28;20529;-62
2024/02/05 08:46:55;;;;;;;18.25;4.40;;;;;;;17.32;49.74;101905.50;4972780;28;20035;-62
2024/02/05 08:49:21;;;;;;;13.75;3.15;;;;;;;17.46;49.82;101910.47;4972944;28;20027;-62
2024/02/05 08:51:46;;;;;;;13.75;3.80;;;;;;;17.45;49.99;101917.72;4972892;28;20132;-62
2024/02/05 08:54:12;;;;;;;14.18;3.22;;;;;;;17.49;49.91;101921.00;4975271;28;20513;-62
2024/02/05 08:56:39;;;;;;;15.50;2.65;;;;;;;17.53;49.44;101917.00;4978601;28;20031;-63
2024/02/05 08:59:04;;;;;;;10.93;2.67;;;;;;;17.52;49.08;101920.72;4992641;28;20075;-63
2024/02/05 09:01:30;;;;;;;16.92;3.05;;;;;;;17.55;49.36;101906.91;4976742;28;20042;-62
2024/02/05 09:03:55;;;;;;;20.00;3.53;;;;;;;17.59;49.52;101905.59;4994990;28;20043;-63
2024/02/05 09:06:20;;;;;;;13.00;3.08;;;;;;;17.60;49.33;101910.03;4979876;28;20089;-62
2024/02/05 09:08:46;;;;;;;17.20;3.35;;;;;;;17.64;49.57;101906.03;4994365;28;20031;-62
2024/02/05 09:11:11;;;;;;;18.33;3.67;;;;;;;17.65;49.37;101905.00;4992825;28;20035;-62
2024/02/05 09:13:37;;;;;;;14.27;2.65;;;;;;;17.71;49.19;101899.00;4976541;28;20031;-62
2024/02/05 09:16:03;;;;;;;13.20;3.40;;;;;;;17.81;48.86;101902.50;4976418;28;20038;-62
2024/02/05 09:18:29;;;;;;;16.58;2.78;;;;;;;17.81;49.16;101901.66;4977115;28;20035;-62
2024/02/05 09:20:54;;;;;;;16.98;2.75;;;;;;;17.80;48.73;101906.25;4992248;28;20039;-62
2024/02/05 09:23:20;;;;;;;18.00;2.78;;;;;;;17.81;48.96;101909.81;4977743;28;20118;-62
2024/02/05 09:25:46;;;;;;;12.18;2.38;;;;;;;17.87;49.46;101906.47;4977410;28;20125;-61
2024/02/05 09:28:11;;;;;;;25.33;3.47;;;;;;;17.88;48.90;101900.91;4975864;28;20042;-62
2024/02/05 09:30:40;;;;;;;22.10;3.22;;;;;;;17.89;49.22;101896.34;4975690;28;20031;-62
2024/02/05 09:33:07;;;;;;;13.68;2.65;;;;;;;17.91;49.26;101889.78;4977251;28;20110;-62
2024/02/05 09:35:33;;;;;;;12.45;2.80;;;;;;;17.94;49.07;101886.75;4975878;28;20570;-62
2024/02/05 09:37:59;;;;;;;15.50;2.90;;;;;;;17.97;48.63;101900.03;4975891;28;20034;-62
2024/02/05 09:40:25;;;;;;;14.10;2.63;;;;;;;17.93;49.11;101887.75;4977014;28;20399;-62
2024/02/05 09:42:51;;;;;;;19.48;3.10;;;;;;;17.92;48.77;101893.34;4969562;28;20049;-62
2024/02/05 09:45:17;;;;;;;8.93;2.35;;;;;;;17.95;49.07;101893.88;4975749;28;20031;-62
2024/02/05 09:47:43;;;;;;;15.75;2.75;;;;;;;17.98;48.63;101892.72;4975501;28;20410;-62
2024/02/05 09:50:12;;;;;;;18.70;2.72;;;;;;;17.98;48.60;101890.84;4975510;28;20031;-62
2024/02/05 09:52:40;;;;;;;15.68;2.80;;;;;;;18.09;48.71;101897.09;4975477;28;20508;-62
2024/02/05 09:55:10;;;;;;;21.98;3.75;;;;;;;18.06;48.20;101908.25;4975624;28;20078;-62
2024/02/05 09:57:36;;;;;;;11.43;2.78;;;;;;;18.04;48.04;101919.22;4975596;28;20402;-63
2024/02/05 10:00:01;;;;;;;19.65;2.88;;;;;;;18.06;48.26;101902.81;4975385;28;20031;-62
2024/02/05 10:02:27;;;;;;;14.93;3.20;;;;;;;18.10;48.30;101902.34;4976468;28;20030;-67
2024/02/05 10:04:53;;;;;;;8.82;2.20;;;;;;;18.28;48.23;101915.97;4969246;28;20049;-67
2024/02/05 10:07:20;;;;;;;11.68;2.95;;;;;;;18.18;48.06;101904.31;4993215;28;20165;-67
2024/02/05 10:09:46;;;;;;;11.70;3.22;;;;;;;18.20;48.06;101907.75;4944984;28;20039;-67
2024/02/05 10:12:13;;;;;;;8.77;3.33;;;;;;;18.21;47.89;101910.28;4977667;28;20554;-67
2024/02/05 10:14:42;;;;;;;15.63;3.45;;;;;;;18.20;47.52;101907.75;4975004;28;20045;-67
2024/02/05 10:17:09;;;;;;;11.23;2.30;;;;;;;18.25;48.07;101905.41;4975393;28;20030;-67
2024/02/05 10:19:34;;;;;;;8.68;2.38;;;;;;;18.42;47.93;101904.59;4968452;28;20402;-67
2024/02/05 10:22:00;;;;;;;12.15;2.67;;;;;;;18.70;47.17;101895.41;4983698;28;20039;-67
2024/02/05 10:24:26;;;;;;;11.38;2.63;;;;;;;18.86;47.10;101895.56;4993268;28;20034;-68
2024/02/05 10:26:51;;;;;;;20.23;3.65;;;;;;;18.82;47.33;101898.72;4975243;28;20122;-67
2024/02/05 10:29:21;;;;;;;16.55;3.20;;;;;;;18.88;47.39;101901.66;4974597;28;20042;-67
2024/02/05 10:31:49;;;;;;;14.80;2.20;;;;;;;18.85;47.13;101901.97;4973298;28;20030;-67
2024/02/05 10:34:23;;;;;;;8.85;2.75;;;;;;;18.85;47.01;101892.97;4975960;28;20035;-68
2024/02/05 10:36:50;;;;;;;13.10;2.45;;;;;;;18.84;47.44;101892.16;4974700;28;20041;-67
2024/02/05 10:39:19;;;;;;;15.15;3.00;;;;;;;18.83;47.52;101895.84;4968028;28;20040;-67
2024/02/05 10:41:45;;;;;;;10.48;2.13;;;;;;;18.88;47.16;101890.81;4974312;28;20058;-67
2024/02/05 10:44:11;;;;;;;11.27;2.50;;;;;;;18.88;47.33;101892.66;4968214;28;20035;-67
2024/02/05 10:46:36;;;;;;;16.63;3.67;;;;;;;19.12;45.88;101890.97;4968026;28;20522;-67
2024/02/05 10:49:02;;;;;;;14.73;2.83;;;;;;;19.08;46.53;101899.63;4976995;28;20026;-67
2024/02/05 10:51:28;;;;;;;15.48;2.70;;;;;;;19.19;45.93;101886.63;4975895;28;20031;-67
2024/02/05 10:53:54;;;;;;;16.33;3.40;;;;;;;19.21;45.95;101880.22;4974009;28;20027;-67
2024/02/05 10:56:19;;;;;;;22.27;3.55;;;;;;;19.24;47.06;101883.44;4983055;28;20510;-67
2024/02/05 10:58:45;;;;;;;14.77;3.45;;;;;;;19.31;46.29;101870.06;4969066;28;20491;-67
2024/02/05 11:01:15;;;;;;;11.77;2.92;;;;;;;19.42;46.03;101876.13;4967314;28;20039;-67
2024/02/05 11:03:43;;;;;;;15.23;2.35;;;;;;;19.64;45.72;101872.84;4965888;28;20447;-68
2024/02/05 11:06:11;;;;;;;11.68;2.40;;;;;;;19.78;45.87;101865.94;4975039;28;20053;-67
2024/02/05 11:08:39;;;;;;;12.55;2.42;;;;;;;19.62;46.34;101871.31;4975246;28;20011;-67
2024/02/05 11:11:09;;;;;;;8.30;2.08;;;;;;;19.49;45.88;101860.88;4988823;28;20355;-67